Aeroporto :
LOGIN :

Iscrizione | Disclaimer

   EN    FR    IT 

 










Sommario :    VFR   VFR Marginale   IFR   IFR Intensivo   IFR Molto Intensivo
Visibilità : 
Base nubi : 
>= 8 km
>= 3000ft
5 / 8 km
1000 / 3000 ft
1500m / 5 km
500 / 1000 ft
800 / 1500m
200 / 500 ft
< 800m
< 200 ft
Simboli :   Temporali  Nebbia  Neve Forte  Precipitazioni Forti  Vento > 20 kt
SIGMETs :   Varie  Temporali  Ghiacco  Turbolenza  Onda orograficha  Ceneri Vulcaniche







- Altitudine del aeroporto : 2265 ft
- Codice IATA : CZL


DABC - Mohamed Boudiaf Int. Constantine

ULTIMO METAR :
  • 200930Z 33008KT 8000 -RA SCT013TCU BKN030 06/05 Q1020

METARs OBSOLETI :
  • 200900Z 32008KT 9999 FEW013 SCT020 BKN033 07/05 Q1020
  • 200830Z 32008KT 9999 FEW013 SCT020 BKN033 06/05 Q1020
  • 200800Z 33007KT 9999 FEW013 SCT020 BKN040 06/05 Q1020
  • 200730Z 32007KT 9999 FEW016 SCT020 BKN033 06/05 Q1019
  • 200700Z 32008KT 8000 FEW010 SCT020 BKN026 05/04 Q1019

TAF TAF DABC
Valido dal 20 a 06 ore il 21 a 06 ore UTC


200500Z 2006/2106 30008KT 8000 FEW016 BKN026
PROB40
TEMPO 2008/2018 5000 RA BKN015 FEW020TCU
BECMG 2007/2010 01012KT
TEMPO 2018/2106 5000 -TSRA FEW023CB
BECMG 2021/2023 29008KT
Nessun NOTAM noto per questo aeroporto.



MetMap, La meteo Aeronautica in un colpo d'occhio ! - Copyright ORBIFLY Dicembre 2007 - Disclaimer

ORBIFLY MET'MAP TEAM :

Programmazione e sviluppo : Alexandra Zaïnal
Concezione e sviluppo : Baudouin d'Aumeries
Co-Programmazione e sviluppo : Marc-Olivier Méhu
Supporto tecnico e logistico : Manuel Goepfert
Aiuto per la traduzione : Arnaldo La Scala

Contatto : metmap@orbifly.com




FONTI E CREDITI :

   NOAA